Birmingham, AL (35242)

7:27 AM CDT on July 03, 2015 (GMT -0500)
Thorn Berry | | Change Station
CLOSE
Current Station
Personal Weather Station
Location: Birmingham, AL
Elevation: 547 ft
Nearby Weather Stations

Elev 547 ft 33.40 °N, 86.72 °W | Updated 30 seconds ago

Overcast
Overcast
76.6 °F
Feels Like 78 °F
N
0.0
Wind Variable Wind from SW
Gusts 0.0 mph

Today
High -- | Low -- °F
--% Chance of Precip.
Yesterday
High -- | Low -- °F
Precip. -- in
5:41 AM 8:00 PM
Full, 97% visible
Pressure 30.03 in
Visibility 4.0 miles
Clouds Few 1000 ft
Mostly Cloudy 3500 ft
Overcast 5000 ft
Heat Index 78 °F
Dew Point 70 °F
Humidity 79%
Rainfall 0.00 in
Snow Depth Not available.
UV 0 out of 12
Pollen .60 out of 12
Air Quality Not available.
Flu Activity Not available.
SPECI KBHM 031223Z 27005KT 4SM -RA BR FEW010 BKN035 OVC050 22/21 A3003 RMK AO2 LTG DSNT E RAB1159 P0007 T02170206

More Conditions Fewer Conditions

Pressure 30.03 in
Visibility 4.0 miles
Clouds Few 1000 ft
Mostly Cloudy 3500 ft
Overcast 5000 ft
Heat Index 78 °F
Dew Point 70 °F
Humidity 79%
Rainfall 0.00 in
Snow Depth Not available.
UV 0 out of 12
Pollen .60 out of 12
Air Quality Not available.
Flu Activity Not available.
SPECI KBHM 031223Z 27005KT 4SM -RA BR FEW010 BKN035 OVC050 22/21 A3003 RMK AO2 LTG DSNT E RAB1159 P0007 T02170206

More Conditions Fewer Conditions

10-Day Weather Forecast

×

Almanac

Astronomy

Jul. 03, 2015 Rise Set
Actual Time
Civil Twilight
Nautical Twilight
Astronomical Twilight
Moon
Length of Visible Light
Length of Day
Tomorrow will be .
, % of the Moon is Illuminated

Today's Extremes

State Highs State Lows

Community

WunderPhotos

Upload Photos

1,834,656 photos uploaded!

WunderBlogs® & News

Nearby

Air Quality

  Air Quality AQ Index Pollutant
Not available.

Snow Depth

Station Depth Elevation

Earthquake Activity

City Distance Mag. Time & Date
Minimum magnitude displayed is 2.5.

Coastal Water Temperatures

Place Temperature

Stations

Nearby Weather Stations

Station Location Temp. Windchill Dew Point Humidity Wind Precip. Elev Updated Type